TimeCET,TemperatureF,Dew PointF,Humidity,Sea Level PressureIn,VisibilityMPH,Wind Direction,Wind SpeedMPH,Gust SpeedMPH,PrecipitationIn,Events,Conditions,WindDirDegrees,DateUTC
5:30 AM,48.2,41.0,76,29.98,6.2,North,16.1,27.6,N/A,Rain,Light Rain,350,2012-11-29 04:30:00
6:00 AM,48.2,41.0,76,29.98,6.2,North,15.0,-,N/A,,Mostly Cloudy,10,2012-11-29 05:00:00
6:30 AM,48.2,39.2,71,30.01,6.2,North,15.0,-,N/A,,Mostly Cloudy,10,2012-11-29 05:30:00
7:00 AM,50.0,41.0,71,30.01,6.2,NNW,10.4,-,N/A,,Mostly Cloudy,330,2012-11-29 06:00:00
7:30 AM,48.2,41.0,76,30.01,4.3,NNW,18.4,36.8,N/A,Rain,Small Hail Showers,340,2012-11-29 06:30:00
7:31 AM,46.4,41.0,81,30.01,2.2,NNW,21.9,35.7,N/A,Rain,Light Small Hail Showers,340,2012-11-29 06:31:00
7:39 AM,44.6,39.2,81,30.01,3.7,NNW,19.6,-,N/A,Rain,Light Rain Showers,340,2012-11-29 06:39:00
8:00 AM,44.6,41.0,87,30.01,5.0,NNE,8.1,19.6,N/A,Rain,Rain,20,2012-11-29 07:00:00
8:30 AM,48.2,41.0,76,30.01,6.2,North,15.0,-,N/A,,Mostly Cloudy,10,2012-11-29 07:30:00
9:00 AM,48.2,39.2,71,30.01,6.2,North,20.7,-,N/A,Rain,Light Rain,10,2012-11-29 08:00:00
9:30 AM,48.2,39.2,71,30.01,6.2,North,5.8,-,N/A,,Mostly Cloudy,360,2012-11-29 08:30:00
10:00 AM,48.2,37.4,66,30.04,6.2,North,17.3,32.2,N/A,Rain,Rain,360,2012-11-29 09:00:00
10:20 AM,46.4,39.2,76,30.04,5.0,North,11.5,-,N/A,Rain-Hail,Rain Showers,360,2012-11-29 09:20:00
10:25 AM,46.4,39.2,76,30.04,6.2,North,9.2,-,N/A,Rain,Light Rain Showers,360,2012-11-29 09:25:00
10:30 AM,46.4,39.2,76,30.04,6.2,North,8.1,-,N/A,Rain,Rain Showers,360,2012-11-29 09:30:00
11:00 AM,50.0,39.2,66,30.04,6.2,NNW,10.4,-,N/A,,Mostly Cloudy,330,2012-11-29 10:00:00
11:30 AM,51.8,37.4,58,30.04,6.2,NNW,11.5,-,N/A,,Mostly Cloudy,340,2012-11-29 10:30:00
12:00 PM,51.8,39.2,62,30.04,6.2,NNW,12.7,-,N/A,,Mostly Cloudy,330,2012-11-29 11:00:00
12:30 PM,50.0,41.0,71,30.01,6.2,North,16.1,28.8,N/A,,Mostly Cloudy,360,2012-11-29 11:30:00
1:00 PM,50.0,39.2,66,30.01,6.2,North,11.5,-,N/A,,Mostly Cloudy,350,2012-11-29 12:00:00
1:30 PM,51.8,39.2,62,30.01,6.2,NW,10.4,-,N/A,,Scattered Clouds,320,2012-11-29 12:30:00
2:00 PM,51.8,39.2,62,30.01,6.2,WNW,12.7,-,N/A,,Scattered Clouds,300,2012-11-29 13:00:00
2:30 PM,48.2,41.0,76,29.98,6.2,North,15.0,27.6,N/A,,Scattered Clouds,360,2012-11-29 13:30:00
3:00 PM,50.0,41.0,71,29.98,6.2,North,8.1,-,N/A,,Scattered Clouds,10,2012-11-29 14:00:00
3:30 PM,50.0,39.2,66,29.98,6.2,NNW,10.4,25.3,N/A,,Scattered Clouds,330,2012-11-29 14:30:00
4:00 PM,50.0,37.4,62,29.95,6.2,NNW,6.9,-,N/A,,Scattered Clouds,330,2012-11-29 15:00:00
4:30 PM,50.0,39.2,66,29.95,6.2,NW,10.4,-,N/A,,Scattered Clouds,320,2012-11-29 15:30:00
5:00 PM,50.0,39.2,66,29.95,6.2,WNW,9.2,-,N/A,,Scattered Clouds,300,2012-11-29 16:00:00
5:30 PM,48.2,42.8,82,29.95,6.2,WSW,5.8,-,N/A,,Scattered Clouds,250,2012-11-29 16:30:00
6:00 PM,46.4,41.0,81,29.95,6.2,SSW,8.1,-,N/A,,Mostly Cloudy,210,2012-11-29 17:00:00
6:30 PM,44.6,42.8,93,29.95,6.2,WSW,10.4,-,N/A,,Mostly Cloudy,240,2012-11-29 17:30:00
7:00 PM,44.6,42.8,93,29.92,6.2,SW,6.9,-,N/A,Rain,Light Rain Showers,230,2012-11-29 18:00:00
7:30 PM,44.6,42.8,93,29.92,4.3,WSW,9.2,-,N/A,Rain,Light Rain Showers,250,2012-11-29 18:30:00
8:00 PM,44.6,42.8,93,29.92,6.2,SSW,6.9,-,N/A,Rain,Light Rain Showers,210,2012-11-29 19:00:00
8:30 PM,44.6,42.8,93,29.92,6.2,SW,10.4,-,N/A,,Mostly Cloudy,220,2012-11-29 19:30:00
9:00 PM,44.6,42.8,93,29.92,6.2,SW,11.5,-,N/A,Rain,Light Rain Showers,220,2012-11-29 20:00:00
9:30 PM,44.6,42.8,93,29.89,6.2,West,11.5,-,N/A,Rain,Light Rain Showers,260,2012-11-29 20:30:00
10:00 PM,46.4,39.2,76,29.89,6.2,WNW,12.7,-,N/A,Rain,Light Rain,290,2012-11-29 21:00:00
10:30 PM,44.6,42.8,93,29.89,6.2,SW,10.4,-,N/A,,Mostly Cloudy,220,2012-11-29 21:30:00
11:00 PM,44.6,42.8,93,29.89,1.9,Variable,2.3,-,N/A,Rain,Heavy Rain Showers,0,2012-11-29 22:00:00
11:30 PM,44.6,42.8,93,29.86,6.2,SSW,6.9,-,N/A,,Mostly Cloudy,210,2012-11-29 22:30:00